sensor_id;sensor_type;location;lat;lon;timestamp;P1;durP1;ratioP1;P2;durP2;ratioP2
3735;SDS011;1883;48.202;16.310;2023-05-10T00:00:02;12.73;;;4.70;;
3735;SDS011;1883;48.202;16.310;2023-05-10T00:02:31;11.93;;;4.20;;
3735;SDS011;1883;48.202;16.310;2023-05-10T00:04:59;14.03;;;4.97;;
3735;SDS011;1883;48.202;16.310;2023-05-10T00:07:26;18.17;;;5.20;;
3735;SDS011;1883;48.202;16.310;2023-05-10T00:09:53;14.00;;;4.40;;
3735;SDS011;1883;48.202;16.310;2023-05-10T00:27:30;15.60;;;4.70;;
3735;SDS011;1883;48.202;16.310;2023-05-10T00:29:57;15.37;;;4.03;;
3735;SDS011;1883;48.202;16.310;2023-05-10T00:32:29;21.57;;;4.80;;
3735;SDS011;1883;48.202;16.310;2023-05-10T00:35:46;19.10;;;4.60;;
3735;SDS011;1883;48.202;16.310;2023-05-10T00:38:53;16.03;;;4.97;;
3735;SDS011;1883;48.202;16.310;2023-05-10T00:42:23;17.07;;;5.10;;
3735;SDS011;1883;48.202;16.310;2023-05-10T00:45:42;16.03;;;4.83;;
3735;SDS011;1883;48.202;16.310;2023-05-10T00:48:10;12.70;;;4.67;;
3735;SDS011;1883;48.202;16.310;2023-05-10T00:50:37;12.77;;;4.40;;
3735;SDS011;1883;48.202;16.310;2023-05-10T01:09:27;12.77;;;4.10;;
3735;SDS011;1883;48.202;16.310;2023-05-10T01:11:54;37.90;;;5.17;;
3735;SDS011;1883;48.202;16.310;2023-05-10T01:14:22;13.57;;;5.20;;
3735;SDS011;1883;48.202;16.310;2023-05-10T01:16:50;11.67;;;4.73;;
3735;SDS011;1883;48.202;16.310;2023-05-10T01:19:23;13.07;;;4.93;;
3735;SDS011;1883;48.202;16.310;2023-05-10T01:21:56;13.13;;;4.67;;
3735;SDS011;1883;48.202;16.310;2023-05-10T01:27:55;15.20;;;4.93;;
3735;SDS011;1883;48.202;16.310;2023-05-10T01:34:34;13.60;;;5.00;;
3735;SDS011;1883;48.202;16.310;2023-05-10T01:37:04;17.07;;;5.10;;
3735;SDS011;1883;48.202;16.310;2023-05-10T01:39:36;14.30;;;4.50;;
3735;SDS011;1883;48.202;16.310;2023-05-10T01:42:11;13.33;;;4.63;;
3735;SDS011;1883;48.202;16.310;2023-05-10T01:44:42;16.63;;;5.40;;
3735;SDS011;1883;48.202;16.310;2023-05-10T01:50:01;15.10;;;6.30;;
3735;SDS011;1883;48.202;16.310;2023-05-10T01:52:32;12.40;;;5.40;;
3735;SDS011;1883;48.202;16.310;2023-05-10T01:55:04;12.43;;;4.90;;
3735;SDS011;1883;48.202;16.310;2023-05-10T01:57:33;30.73;;;5.13;;
3735;SDS011;1883;48.202;16.310;2023-05-10T02:00:02;11.73;;;4.93;;
3735;SDS011;1883;48.202;16.310;2023-05-10T02:02:30;14.43;;;5.30;;
3735;SDS011;1883;48.202;16.310;2023-05-10T02:05:05;14.00;;;4.93;;
3735;SDS011;1883;48.202;16.310;2023-05-10T02:07:33;17.00;;;5.50;;
3735;SDS011;1883;48.202;16.310;2023-05-10T02:10:02;16.90;;;5.47;;
3735;SDS011;1883;48.202;16.310;2023-05-10T02:12:32;19.63;;;5.50;;
3735;SDS011;1883;48.202;16.310;2023-05-10T02:15:02;12.33;;;4.93;;
3735;SDS011;1883;48.202;16.310;2023-05-10T02:17:32;12.00;;;5.30;;
3735;SDS011;1883;48.202;16.310;2023-05-10T02:20:00;20.20;;;5.60;;
3735;SDS011;1883;48.202;16.310;2023-05-10T02:22:30;17.67;;;4.80;;
3735;SDS011;1883;48.202;16.310;2023-05-10T02:24:59;14.47;;;4.97;;
3735;SDS011;1883;48.202;16.310;2023-05-10T02:27:27;14.33;;;5.60;;
3735;SDS011;1883;48.202;16.310;2023-05-10T02:29:55;11.53;;;5.10;;
3735;SDS011;1883;48.202;16.310;2023-05-10T02:32:23;16.10;;;5.80;;
3735;SDS011;1883;48.202;16.310;2023-05-10T02:34:52;12.30;;;4.87;;
3735;SDS011;1883;48.202;16.310;2023-05-10T02:37:20;20.00;;;5.27;;
3735;SDS011;1883;48.202;16.310;2023-05-10T02:43:00;15.63;;;6.20;;
3735;SDS011;1883;48.202;16.310;2023-05-10T02:45:29;22.37;;;5.40;;
3735;SDS011;1883;48.202;16.310;2023-05-10T02:53:31;15.57;;;5.60;;
3735;SDS011;1883;48.202;16.310;2023-05-10T03:02:09;16.33;;;6.40;;
3735;SDS011;1883;48.202;16.310;2023-05-10T03:10:51;14.00;;;5.27;;
3735;SDS011;1883;48.202;16.310;2023-05-10T03:13:31;13.30;;;5.23;;
3735;SDS011;1883;48.202;16.310;2023-05-10T03:16:06;31.77;;;6.77;;
3735;SDS011;1883;48.202;16.310;2023-05-10T03:18:40;13.67;;;5.67;;
3735;SDS011;1883;48.202;16.310;2023-05-10T03:21:11;14.70;;;6.03;;
3735;SDS011;1883;48.202;16.310;2023-05-10T03:23:41;22.90;;;8.60;;
3735;SDS011;1883;48.202;16.310;2023-05-10T03:26:12;18.70;;;7.00;;
3735;SDS011;1883;48.202;16.310;2023-05-10T03:28:44;26.60;;;7.63;;
3735;SDS011;1883;48.202;16.310;2023-05-10T03:31:11;14.70;;;6.30;;
3735;SDS011;1883;48.202;16.310;2023-05-10T03:33:46;24.50;;;7.53;;
3735;SDS011;1883;48.202;16.310;2023-05-10T03:36:14;24.93;;;8.70;;
3735;SDS011;1883;48.202;16.310;2023-05-10T03:38:41;15.27;;;6.70;;
3735;SDS011;1883;48.202;16.310;2023-05-10T03:41:08;18.97;;;6.87;;
3735;SDS011;1883;48.202;16.310;2023-05-10T03:43:35;17.20;;;6.77;;
3735;SDS011;1883;48.202;16.310;2023-05-10T03:46:02;16.27;;;6.73;;
3735;SDS011;1883;48.202;16.310;2023-05-10T03:48:29;16.20;;;7.10;;
3735;SDS011;1883;48.202;16.310;2023-05-10T03:50:57;16.93;;;7.33;;
3735;SDS011;1883;48.202;16.310;2023-05-10T03:53:25;18.07;;;8.00;;
3735;SDS011;1883;48.202;16.310;2023-05-10T03:55:52;17.10;;;6.60;;
3735;SDS011;1883;48.202;16.310;2023-05-10T03:58:19;22.40;;;8.27;;
3735;SDS011;1883;48.202;16.310;2023-05-10T04:00:50;22.90;;;8.47;;
3735;SDS011;1883;48.202;16.310;2023-05-10T04:03:59;17.17;;;6.60;;
